Estación de Combarbala
Ultimos registro cada 15 minutos 59
| N° | Estación | Fecha / Hora | Temperatura | Humedad | Lluvia | Velocidad | Dirección | Radiación | Presion |
| 59 | Combarbala | 06-05-2026 14:30 | 24 | 24 | 0 | 1,5 | 303 | 658,1 | 911 |
| 58 | Combarbala | 06-05-2026 14:15 | 24 | 24,3 | 0 | 1,5 | 286 | 591,9 | 911,4 |
| 57 | Combarbala | 06-05-2026 14:00 | 23,5 | 25,1 | 0 | 1,5 | 288 | 580,6 | 911,5 |
| 56 | Combarbala | 06-05-2026 13:45 | 22,5 | 27,5 | 0 | 1,5 | 281 | 590,6 | 911,7 |
| 55 | Combarbala | 06-05-2026 13:30 | 23,3 | 27,4 | 0 | 1,5 | 303 | 601,9 | 911,8 |
| 54 | Combarbala | 06-05-2026 13:15 | 23,2 | 27,2 | 0 | 1,5 | 281 | 628,1 | 911,9 |
| 53 | Combarbala | 06-05-2026 13:00 | 22,7 | 28,2 | 0 | 1,5 | 288 | 620,6 | 912 |
| 52 | Combarbala | 06-05-2026 12:45 | 22,7 | 28,8 | 0 | 1,5 | 296 | 624,4 | 912 |
| 51 | Combarbala | 06-05-2026 12:30 | 22,6 | 29,1 | 0 | 1 | 289 | 620,6 | 912,2 |
| 50 | Combarbala | 06-05-2026 12:15 | 22,1 | 31,5 | 0 | 1 | 331 | 620,6 | 912,4 |
| 49 | Combarbala | 06-05-2026 12:00 | 21,9 | 33,9 | 0 | 1 | 316 | 611,9 | 912,4 |
| 48 | Combarbala | 06-05-2026 11:45 | 21,4 | 36 | 0 | 1 | 327 | 600,6 | 912,6 |
| 47 | Combarbala | 06-05-2026 11:30 | 21 | 39,2 | 0 | 0,5 | 307 | 585,6 | 912,8 |
| 46 | Combarbala | 06-05-2026 11:15 | 20,5 | 40,5 | 0 | 0,5 | 341 | 565,6 | 913,2 |
| 45 | Combarbala | 06-05-2026 11:00 | 20,3 | 41,4 | 0 | 0,5 | 338 | 541,9 | 913,2 |
| 44 | Combarbala | 06-05-2026 10:45 | 19 | 45 | 0 | 1 | 41 | 515,6 | 913,2 |
| 43 | Combarbala | 06-05-2026 10:30 | 18,7 | 46 | 0 | 1 | 15 | 484,4 | 913,1 |
| 42 | Combarbala | 06-05-2026 10:15 | 18,1 | 48,3 | 0 | 0,5 | 4 | 455,6 | 913,1 |
| 41 | Combarbala | 06-05-2026 10:00 | 17,8 | 48,3 | 0 | 0,5 | 345 | 421,9 | 912,9 |
| 40 | Combarbala | 06-05-2026 09:45 | 17,4 | 47,3 | 0 | 0,5 | 300 | 386,9 | 912,7 |
| 39 | Combarbala | 06-05-2026 09:30 | 17,1 | 50 | 0 | 0 | 219 | 348,1 | 912,8 |
| 38 | Combarbala | 06-05-2026 09:15 | 15,9 | 51,9 | 0 | 0 | 219 | 310,6 | 912,5 |
| 37 | Combarbala | 06-05-2026 09:00 | 15,3 | 52 | 0 | 0 | 219 | 220,6 | 912,4 |
| 36 | Combarbala | 06-05-2026 08:45 | 13,4 | 56,9 | 0 | 0 | 219 | 193,1 | 912,5 |
| 35 | Combarbala | 06-05-2026 08:30 | 12 | 60 | 0 | 0 | 219 | 126,9 | 912,4 |
| 34 | Combarbala | 06-05-2026 08:15 | 10,7 | 64,4 | 0 | 0 | 219 | 58,1 | 912,6 |
| 33 | Combarbala | 06-05-2026 08:00 | 9,7 | 67,3 | 0 | 0 | 219 | 30,6 | 912,5 |
| 32 | Combarbala | 06-05-2026 07:45 | 10,3 | 65,8 | 0 | 0 | 219 | 14,4 | 912,5 |
| 31 | Combarbala | 06-05-2026 07:30 | 10,6 | 65,1 | 0 | 0 | 219 | 5,6 | 912,4 |
| 30 | Combarbala | 06-05-2026 07:15 | 10,5 | 65,6 | 0 | 0 | 219 | 1,9 | 912,1 |
| 29 | Combarbala | 06-05-2026 07:00 | 10,1 | 67,2 | 0 | 0 | 219 | 0,6 | 911,9 |
| 28 | Combarbala | 06-05-2026 06:45 | 10 | 66,6 | 0 | 0 | 219 | 0,6 | 911,6 |
| 27 | Combarbala | 06-05-2026 06:30 | 11,3 | 60,6 | 0 | 0,5 | 218 | 0,6 | 911,3 |
| 26 | Combarbala | 06-05-2026 06:15 | 11,9 | 60,5 | 0 | 0 | 153 | 0,6 | 911 |
| 25 | Combarbala | 06-05-2026 06:00 | 11,4 | 60,1 | 0 | 0 | 149 | 0,6 | 910,6 |
| 24 | Combarbala | 06-05-2026 05:45 | 11,8 | 56,9 | 0 | 1 | 135 | 0,6 | 910,5 |
| 23 | Combarbala | 06-05-2026 05:30 | 14 | 54,7 | 0 | 1 | 121 | 0,6 | 910,3 |
| 22 | Combarbala | 06-05-2026 05:15 | 13,7 | 56,5 | 0 | 1 | 121 | 0,6 | 910,4 |
| 21 | Combarbala | 06-05-2026 05:00 | 12,2 | 60,2 | 0 | 0,5 | 112 | 0,6 | 910,5 |
| 20 | Combarbala | 06-05-2026 04:45 | 10,8 | 65,4 | 0 | 0 | 110 | 0,6 | 910,7 |
| 19 | Combarbala | 06-05-2026 04:30 | 11,1 | 64 | 0 | 0 | 110 | 0,6 | 910,8 |
| 18 | Combarbala | 06-05-2026 04:15 | 10,5 | 66,6 | 0 | 0 | 110 | 0,6 | 910,7 |
| 17 | Combarbala | 06-05-2026 04:00 | 10,2 | 65,7 | 0 | 0 | 110 | 0,6 | 910,3 |
| 16 | Combarbala | 06-05-2026 03:45 | 11,3 | 61,4 | 0 | 0 | 110 | 0,6 | 910,3 |
| 15 | Combarbala | 06-05-2026 03:30 | 11,5 | 63,5 | 0 | 0 | 110 | 0,6 | 910,2 |
| 14 | Combarbala | 06-05-2026 03:15 | 12,1 | 62 | 0 | 1 | 110 | 0,6 | 910,3 |
| 13 | Combarbala | 06-05-2026 03:00 | 11,2 | 64 | 0 | 0,5 | 166 | 0,6 | 910,4 |
| 12 | Combarbala | 06-05-2026 02:45 | 10,6 | 65,4 | 0 | 0 | 234 | 0,6 | 910,3 |
| 11 | Combarbala | 06-05-2026 02:30 | 11,1 | 64,2 | 0 | 0 | 202 | 0,6 | 910,4 |
| 10 | Combarbala | 06-05-2026 02:15 | 11,6 | 63,1 | 0 | 0 | 101 | 0,6 | 910,2 |
| 9 | Combarbala | 06-05-2026 02:00 | 12 | 62,4 | 0 | 0 | 101 | 0,6 | 910 |
| 8 | Combarbala | 06-05-2026 01:45 | 11,6 | 61,9 | 0 | 0 | 101 | 0,6 | 910,1 |
| 7 | Combarbala | 06-05-2026 01:30 | 12,2 | 62,1 | 0 | 0 | 101 | 0,6 | 910,1 |
| 6 | Combarbala | 06-05-2026 01:15 | 12,4 | 62 | 0 | 0 | 97 | 0,6 | 910,1 |
| 5 | Combarbala | 06-05-2026 01:00 | 12,9 | 60,2 | 0 | 0 | 49 | 0,6 | 910,1 |
| 4 | Combarbala | 06-05-2026 00:45 | 12,9 | 60 | 0 | 0 | 49 | 0,6 | 910,3 |
| 3 | Combarbala | 06-05-2026 00:30 | 12,4 | 60,8 | 0 | 0 | 49 | 0,6 | 910,5 |
| 2 | Combarbala | 06-05-2026 00:15 | 12,4 | 60,9 | 0 | 0 | 49 | 0,6 | 910,5 |
| 1 | Combarbala | 06-05-2026 00:00 | 12,6 | 59,8 | 0 | 0 | 49 | 0,6 | 910,5 |